Historique des mesures à Cassis (13260), France
Quotidien Résumé Juin 17, 2018 Unités:  Métrique    US   Métrique/US
« Précédent (Jour)
Suivant (Jour) »
Quotidien Hebdomadaire Mensuel Annuel Période au choix
  Maximum: Minimum: Moyenne:
Température: TemperatureC °C 21.1 °C 23.9 °C
Point de rosée: DewpointC °C 13.1 °C 14.4 °C
Humidité: Humidity % 48 % 52 %
Vitesse du vent: 0 km/h 4.2 km/h 24 km/h
Rafales: 0 km/h - -
Vent:- - WSW
Pression: PressurehPa hPa 1009.1 hPa -
Précipitations: 0.0 mm    
Historical Graphs
 
 
Mesures pour : Juin 17, 2018
Heure Temperature Point de rosée Pression Vent Vitesse du vent Rafales Humidité Pluie (par heure) Conditions
TemperatureC °C DewpointC °C PressurehPa hPa Calm     Humidity % HourlyPrecipMM mm SoftwareType W/m2
00:10 24.1 °C 14.2 °C 1009.6 hPa NNW 4.2 km/h 6.9 km/h 54 % 0.0 mm open2300-1.11 W/m2
01:10 23.6 °C 14.0 °C 1009.3 hPa NW 24.8 km/h 24.8 km/h 55 % 0.0 mm open2300-1.11 W/m2
02:10 23.3 °C 14.0 °C 1009.4 hPa NW 24.8 km/h 24.8 km/h 56 % 0.0 mm open2300-1.11 W/m2
03:10 22.5 °C 13.8 °C 1009.2 hPa North 22.5 km/h 27.2 km/h 58 % 0.0 mm open2300-1.11 W/m2
04:10 21.9 °C 14.1 °C 1009.1 hPa WSW 18.7 km/h 30.1 km/h 61 % 0.0 mm open2300-1.11 W/m2
05:10 21.4 °C 13.8 °C 1009.4 hPa North 14.5 km/h 37 km/h 62 % 0.0 mm open2300-1.11 W/m2
06:10 21.2 °C 13.9 °C 1009.6 hPa North 5.6 km/h 7.6 km/h 63 % 0.0 mm open2300-1.11 W/m2
07:10 21.1 °C 14.2 °C 1009.8 hPa NNW 12.7 km/h 12.7 km/h 65 % 0.0 mm open2300-1.11 W/m2
08:10 22.1 °C 14.7 °C 1010.3 hPa NW 26.7 km/h 26.7 km/h 63 % 0.0 mm open2300-1.11 W/m2
09:10 22.3 °C 14.9 °C 1010.7 hPa NW 13.2 km/h 15.6 km/h 63 % 0.0 mm open2300-1.11 W/m2
10:10 24.9 °C 16.3 °C 1010.9 hPa WNW 27.2 km/h 27.2 km/h 59 % 0.0 mm open2300-1.11 W/m2
11:10 27.2 °C 16.4 °C 1010.9 hPa North 5.1 km/h 18.7 km/h 52 % 0.0 mm open2300-1.11 W/m2
12:10 28.1 °C 16.7 °C 1010.9 hPa West 23.8 km/h 23.8 km/h 50 % 0.0 mm open2300-1.11 W/m2
13:10 28.9 °C 16.8 °C 1010.7 hPa NW 40.7 km/h 40.7 km/h 48 % 0.0 mm open2300-1.11 W/m2
14:10 29.3 °C 17.2 °C 1010.5 hPa West 46.8 km/h 46.8 km/h 48 % 0.0 mm open2300-1.11 W/m2
15:10 28.4 °C 16.7 °C 1010.6 hPa NW 50.5 km/h 50.5 km/h 49 % 0.0 mm open2300-1.11 W/m2
16:10 28.1 °C 16.3 °C 1010.5 hPa NW 43 km/h 43 km/h 49 % 0.0 mm open2300-1.11 W/m2
17:10 27.2 °C 16.2 °C 1010.5 hPa West 21.6 km/h 52.8 km/h 51 % 0.0 mm open2300-1.11 W/m2
18:10 27.4 °C 16.1 °C 1010.4 hPa NW 38.8 km/h 38.8 km/h 50 % 0.0 mm open2300-1.11 W/m2
19:10 26.6 °C 15.3 °C 1010.3 hPa WNW 25.4 km/h 25.4 km/h 50 % 0.0 mm open2300-1.11 W/m2
20:10 25.4 °C 14.3 °C 1010.4 hPa WNW 28.5 km/h 28.5 km/h 50 % 0.0 mm open2300-1.11 W/m2
21:10 24.7 °C 13.3 °C 1010.6 hPa NW 25.4 km/h 27.2 km/h 49 % 0.0 mm open2300-1.11 W/m2
22:10 24.1 °C 13.1 °C 1010.8 hPa NW 22.5 km/h 28.5 km/h 50 % 0.0 mm open2300-1.11 W/m2
23:10 23.3 °C 13.1 °C 1011.1 hPa NNW 30.7 km/h 32.3 km/h 53 % 0.0 mm open2300-1.11 W/m2
Observations météo à CASSIS
WU-History script by Weather Underground - 1 mb